Time;durP1;ratioP1;P1;durP2;ratioP2;P2;SDS_P1;SDS_P2;PMS_P1;PMS_P2;Temp;Humidity;BMP_temperature;BMP_pressure;BME280_temperature;BME280_humidity;BME280_pressure;Samples;Min_cycle;Max_cycle;Signal;HPM_P1;HPM_P2
2021/05/02 00:00:22;;;;;;;0.98;0.63;;;7.60;6.20;;;;;;5004420;28;20027;-83
2021/05/02 00:02:48;;;;;;;1.30;0.52;;;7.60;27.70;;;;;;5004716;28;20461;-83
2021/05/02 00:05:16;;;;;;;0.17;0.17;;;7.60;37.70;;;;;;4989307;28;20015;-83
2021/05/02 00:07:42;;;;;;;0.10;0.10;;;7.60;1.00;;;;;;4989643;28;20065;-84
2021/05/02 00:10:10;;;;;;;0.37;0.37;;;7.60;5.10;;;;;;4988045;28;20025;-83
2021/05/02 00:12:36;;;;;;;1.00;0.73;;;7.70;1.00;;;;;;4989593;28;20498;-82
2021/05/02 00:15:04;;;;;;;0.30;0.30;;;7.70;1.00;;;;;;4988136;28;20741;-82
2021/05/02 00:17:33;;;;;;;0.40;0.40;;;7.70;1.00;;;;;;4989144;28;20065;-82
2021/05/02 00:19:59;;;;;;;0.10;0.10;;;7.70;1.00;;;;;;4989451;28;20093;-82
2021/05/02 00:22:25;;;;;;;0.03;0.03;;;7.70;1.00;;;;;;4989067;28;20023;-83
2021/05/02 00:24:51;;;;;;;13.15;0.63;;;7.70;1.00;;;;;;5016012;28;20041;-84
2021/05/02 00:27:17;;;;;;;0.30;0.30;;;7.70;1.00;;;;;;5008920;28;20095;-83
2021/05/02 00:29:43;;;;;;;0.13;0.13;;;7.70;1.00;;;;;;5010219;28;20037;-83
2021/05/02 00:32:11;;;;;;;0.10;0.10;;;7.60;31.20;;;;;;5013076;28;20022;-83
2021/05/02 00:34:38;;;;;;;0.17;0.17;;;7.70;27.70;;;;;;5012336;28;20038;-83
2021/05/02 00:37:05;;;;;;;0.25;0.25;;;7.70;28.20;;;;;;5012669;28;20571;-83
2021/05/02 00:39:31;;;;;;;0.20;0.20;;;7.60;50.00;;;;;;5012414;28;20687;-83
2021/05/02 00:42:00;;;;;;;0.10;0.10;;;7.60;57.30;;;;;;5012783;28;20025;-83
2021/05/02 00:44:32;;;;;;;0.40;0.40;;;7.60;62.00;;;;;;5012190;28;20037;-83
2021/05/02 00:47:09;;;;;;;0.30;0.30;;;7.60;30.50;;;;;;5027896;28;20405;-83
2021/05/02 00:49:47;;;;;;;0.30;0.30;;;7.60;1.00;;;;;;5012484;28;20026;-84
2021/05/02 00:52:49;;;;;;;0.10;0.10;;;7.60;1.00;;;;;;5027712;28;20567;-84
2021/05/02 00:55:37;;;;;;;0.85;0.47;;;7.60;78.80;;;;;;5012348;28;20018;-85
2021/05/02 00:58:10;;;;;;;0.05;0.05;;;7.50;54.90;;;;;;5011845;28;20042;-84
2021/05/02 01:00:39;;;;;;;0.00;0.00;;;7.50;99.90;;;;;;5012327;28;20108;-84
2021/05/02 01:03:06;;;;;;;0.75;0.75;;;7.40;99.90;;;;;;5012285;28;20029;-84
2021/05/02 01:05:33;;;;;;;0.10;0.10;;;7.30;99.90;;;;;;4999989;28;20057;-84
2021/05/02 01:08:02;;;;;;;0.50;0.43;;;7.20;17.70;;;;;;5005406;28;20037;-84
2021/05/02 01:10:29;;;;;;;0.30;0.25;;;7.20;59.30;;;;;;5011896;28;20442;-83
2021/05/02 01:13:03;;;;;;;0.10;0.10;;;7.20;99.90;;;;;;5027206;28;20065;-83
2021/05/02 01:15:32;;;;;;;0.10;0.10;;;7.20;99.90;;;;;;5012188;28;20022;-84
2021/05/02 01:18:00;;;;;;;0.38;0.38;;;7.30;99.90;;;;;;5011918;28;20026;-84
2021/05/02 01:20:38;;;;;;;0.00;0.00;;;7.10;99.90;;;;;;5012016;28;20518;-84
2021/05/02 01:23:10;;;;;;;0.20;0.20;;;7.20;99.90;;;;;;4998018;28;20026;-84
2021/05/02 01:25:37;;;;;;;0.10;0.10;;;7.10;99.90;;;;;;5009898;28;20100;-84
2021/05/02 01:28:04;;;;;;;0.10;0.10;;;7.20;9.30;;;;;;5011907;28;20851;-83
2021/05/02 01:30:31;;;;;;;0.20;0.20;;;7.30;1.00;;;;;;5011767;28;20030;-84
2021/05/02 01:32:57;;;;;;;0.80;0.43;;;7.30;1.00;;;;;;5011661;28;20030;-84
2021/05/02 01:35:23;;;;;;;0.10;0.10;;;7.30;1.00;;;;;;5011561;28;20044;-85
2021/05/02 01:37:51;;;;;;;0.40;0.30;;;7.30;1.00;;;;;;5026681;28;20025;-84
2021/05/02 01:40:19;;;;;;;0.10;0.10;;;7.20;14.10;;;;;;5011281;28;20125;-84
2021/05/02 01:42:45;;;;;;;0.13;0.13;;;7.10;99.90;;;;;;5011246;28;20088;-84
2021/05/02 01:45:11;;;;;;;0.50;0.50;;;7.00;99.90;;;;;;5011593;28;20022;-84
2021/05/02 01:47:46;;;;;;;0.00;0.00;;;6.80;99.90;;;;;;5011990;28;20041;-83
2021/05/02 01:50:13;;;;;;;0.20;0.20;;;6.70;65.20;;;;;;5011368;28;20026;-84
2021/05/02 01:52:52;;;;;;;0.13;0.13;;;6.60;99.90;;;;;;5011504;28;20018;-84
2021/05/02 01:55:19;;;;;;;0.43;0.43;;;6.40;99.90;;;;;;5011593;28;20120;-84
2021/05/02 01:57:47;;;;;;;0.75;0.45;;;6.50;99.90;;;;;;5011410;28;20029;-83
2021/05/02 02:00:25;;;;;;;0.10;0.10;;;6.40;99.90;;;;;;5009842;28;20106;-83
2021/05/02 02:02:52;;;;;;;0.10;0.10;;;6.40;99.90;;;;;;5011280;28;20029;-83
2021/05/02 02:05:22;;;;;;;0.03;0.03;;;6.40;99.90;;;;;;5010922;28;20555;-83
2021/05/02 02:07:49;;;;;;;0.20;0.20;;;6.30;99.90;;;;;;5011162;28;20133;-84
2021/05/02 02:10:19;;;;;;;0.30;0.30;;;6.30;1.00;;;;;;5011002;28;20385;-84
2021/05/02 02:12:46;;;;;;;0.30;0.30;;;6.30;99.90;;;;;;5011372;28;20101;-84
2021/05/02 02:15:13;;;;;;;0.10;0.10;;;6.30;90.20;;;;;;5010879;28;20069;-84
2021/05/02 02:17:39;;;;;;;0.98;0.30;;;6.20;99.90;;;;;;5010950;28;20022;-84
2021/05/02 02:20:06;;;;;;;0.22;0.22;;;6.20;1.00;;;;;;5010520;28;20456;-84
2021/05/02 02:22:37;;;;;;;0.68;0.35;;;6.10;99.90;;;;;;5011123;28;20021;-84
2021/05/02 02:25:05;;;;;;;0.55;0.52;;;6.00;1.00;;;;;;5010058;28;20092;-84
2021/05/02 02:27:31;;;;;;;0.20;0.20;;;6.10;99.90;;;;;;5010870;28;20045;-84
2021/05/02 02:29:59;;;;;;;0.82;0.80;;;6.10;99.90;;;;;;5010600;28;20092;-84
2021/05/02 02:32:26;;;;;;;0.65;0.38;;;6.00;99.90;;;;;;5010625;28;20026;-84
2021/05/02 02:34:56;;;;;;;0.40;0.40;;;5.90;69.50;;;;;;5009205;28;20535;-84
2021/05/02 02:37:25;;;;;;;0.30;0.30;;;5.90;22.90;;;;;;5010408;28;20030;-84
2021/05/02 02:39:58;;;;;;;0.00;0.00;;;5.90;89.00;;;;;;5010515;28;20053;-84
2021/05/02 02:42:25;;;;;;;0.10;0.10;;;6.10;99.90;;;;;;5010238;28;20490;-84
2021/05/02 02:44:58;;;;;;;0.28;0.28;;;6.00;95.50;;;;;;5010449;28;20648;-84
2021/05/02 02:47:32;;;;;;;0.20;0.20;;;6.00;1.00;;;;;;5009914;28;20494;-85
2021/05/02 02:49:58;;;;;;;0.10;0.10;;;6.00;4.30;;;;;;5010308;28;20449;-85
2021/05/02 02:52:28;;;;;;;0.20;0.20;;;5.90;99.90;;;;;;5009357;28;20040;-84
2021/05/02 02:55:07;;;;;;;0.10;0.10;;;6.00;99.90;;;;;;5010154;28;20730;-85
2021/05/02 02:57:43;;;;;;;0.10;0.10;;;5.90;12.50;;;;;;5010077;28;20028;-84
2021/05/02 03:00:10;;;;;;;0.00;0.00;;;5.80;99.90;;;;;;5009428;28;20061;-85
2021/05/02 03:02:39;;;;;;;0.10;0.10;;;5.80;99.90;;;;;;5009160;28;20104;-84
2021/05/02 03:05:05;;;;;;;0.08;0.08;;;5.50;99.90;;;;;;5009948;28;20096;-84
2021/05/02 03:07:37;;;;;;;0.63;0.32;;;5.40;99.90;;;;;;5008293;28;20676;-84
2021/05/02 03:10:03;;;;;;;0.32;0.32;;;5.40;99.90;;;;;;5009786;28;20029;-84
2021/05/02 03:12:30;;;;;;;0.10;0.10;;;5.30;99.90;;;;;;5009522;28;20109;-84
2021/05/02 03:14:56;;;;;;;0.10;0.10;;;5.10;99.90;;;;;;5009887;28;20057;-84
2021/05/02 03:17:32;;;;;;;3.63;0.60;;;5.10;99.90;;;;;;5009365;28;20305;-84
2021/05/02 03:20:04;;;;;;;0.10;0.10;;;4.90;99.90;;;;;;5010212;28;20042;-84
2021/05/02 03:22:45;;;;;;;0.10;0.10;;;4.80;99.90;;;;;;5009366;28;20448;-85
2021/05/02 03:25:13;;;;;;;0.10;0.10;;;4.90;99.90;;;;;;4994426;28;20525;-84
2021/05/02 03:27:46;;;;;;;0.32;0.32;;;4.90;99.90;;;;;;4989935;28;20031;-85
2021/05/02 03:30:14;;;;;;;0.10;0.10;;;4.90;99.90;;;;;;4989727;28;20375;-83
2021/05/02 03:32:47;;;;;;;0.32;0.32;;;4.90;99.90;;;;;;4989528;28;20121;-83
2021/05/02 03:35:14;;;;;;;0.10;0.10;;;4.90;99.90;;;;;;4989597;28;20502;-83
2021/05/02 03:37:43;;;;;;;0.28;0.28;;;4.80;99.90;;;;;;4987840;28;20061;-83
2021/05/02 03:40:09;;;;;;;0.10;0.10;;;4.80;99.90;;;;;;4989569;28;20027;-83
2021/05/02 03:42:35;;;;;;;0.20;0.20;;;4.80;99.90;;;;;;4989344;28;20034;-84
2021/05/02 03:45:02;;;;;;;0.20;0.20;;;4.70;99.90;;;;;;4987492;28;20524;-83
2021/05/02 03:47:28;;;;;;;0.30;0.30;;;4.80;99.90;;;;;;5004318;28;20042;-84
2021/05/02 03:49:53;;;;;;;0.20;0.20;;;4.70;99.90;;;;;;4989313;28;20030;-84
2021/05/02 03:52:19;;;;;;;0.28;0.28;;;4.80;99.90;;;;;;4989557;28;20038;-84
2021/05/02 03:54:45;;;;;;;0.20;0.20;;;4.90;99.90;;;;;;4988879;28;20041;-85
2021/05/02 03:57:11;;;;;;;0.10;0.10;;;4.90;99.90;;;;;;4989453;28;20026;-84
2021/05/02 03:59:37;;;;;;;0.68;0.68;;;5.00;99.90;;;;;;4988917;28;20041;-84
2021/05/02 04:02:04;;;;;;;0.20;0.20;;;5.00;99.90;;;;;;4989296;28;20430;-85
2021/05/02 04:04:34;;;;;;;0.10;0.10;;;5.00;99.90;;;;;;4988912;28;20030;-84
2021/05/02 04:07:09;;;;;;;0.47;0.47;;;5.00;99.90;;;;;;4989430;28;20029;-84
2021/05/02 04:09:35;;;;;;;0.10;0.10;;;4.90;99.90;;;;;;4988980;28;20041;-84
2021/05/02 04:12:01;;;;;;;0.32;0.32;;;4.80;99.90;;;;;;4988991;28;20026;-84
2021/05/02 04:14:27;;;;;;;0.10;0.10;;;4.80;99.90;;;;;;5003359;28;20037;-84
2021/05/02 04:17:00;;;;;;;1.52;0.50;;;4.80;99.90;;;;;;5023678;28;20026;-84
2021/05/02 04:19:30;;;;;;;0.20;0.20;;;4.80;99.90;;;;;;5007968;28;20026;-84
2021/05/02 04:22:09;;;;;;;0.10;0.10;;;4.90;99.90;;;;;;5004925;28;20018;-84
2021/05/02 04:24:47;;;;;;;0.00;0.00;;;4.90;99.90;;;;;;5002104;28;20030;-83
2021/05/02 04:27:17;;;;;;;0.10;0.10;;;5.00;99.90;;;;;;4950767;28;20094;-83
2021/05/02 04:29:53;;;;;;;0.17;0.17;;;5.20;99.90;;;;;;4957933;28;20050;-83
2021/05/02 04:32:25;;;;;;;0.22;0.22;;;5.40;99.90;;;;;;4956528;28;20034;-83
2021/05/02 04:34:52;;;;;;;0.10;0.10;;;5.40;99.90;;;;;;4965455;28;20598;-84
2021/05/02 04:37:18;;;;;;;12.85;2.88;;;5.50;99.90;;;;;;4955680;28;20018;-83
2021/05/02 04:39:44;;;;;;;0.30;0.30;;;5.50;99.90;;;;;;4969027;28;20527;-83
2021/05/02 04:42:11;;;;;;;0.10;0.10;;;5.40;99.90;;;;;;4969376;28;20034;-84
2021/05/02 04:44:36;;;;;;;0.20;0.20;;;5.40;99.90;;;;;;4951641;28;20027;-84
2021/05/02 04:47:02;;;;;;;0.20;0.20;;;5.50;99.90;;;;;;4967145;28;20045;-85
2021/05/02 04:49:28;;;;;;;0.20;0.20;;;5.50;99.90;;;;;;4969257;28;20479;-85
2021/05/02 04:51:54;;;;;;;0.17;0.17;;;5.40;99.90;;;;;;4967637;28;20041;-85
2021/05/02 04:54:20;;;;;;;0.10;0.10;;;5.30;99.90;;;;;;4968629;28;20027;-84
2021/05/02 04:56:47;;;;;;;0.10;0.10;;;5.30;99.90;;;;;;4961610;28;20050;-84
2021/05/02 04:59:13;;;;;;;0.10;0.10;;;5.30;99.90;;;;;;4953243;28;20057;-85
2021/05/02 05:01:42;;;;;;;0.10;0.10;;;5.30;99.90;;;;;;4982071;28;20324;-85
2021/05/02 05:04:07;;;;;;;0.10;0.10;;;5.30;99.90;;;;;;4954311;28;20050;-85
2021/05/02 05:06:34;;;;;;;0.30;0.30;;;5.40;99.90;;;;;;4950056;28;20396;-84
2021/05/02 05:09:00;;;;;;;0.25;0.25;;;5.40;99.90;;;;;;4955483;28;20031;-86
2021/05/02 05:11:26;;;;;;;1.23;0.52;;;5.40;99.90;;;;;;4969219;28;20066;-86
2021/05/02 05:13:52;;;;;;;1.85;0.95;;;5.30;99.90;;;;;;4958128;28;20044;-86
2021/05/02 05:16:18;;;;;;;0.00;0.00;;;5.30;97.10;;;;;;4951676;28;20496;-85
2021/05/02 05:18:44;;;;;;;0.10;0.10;;;5.30;42.50;;;;;;4960130;28;20067;-86
2021/05/02 05:21:10;;;;;;;0.60;0.60;;;5.40;80.50;;;;;;4964801;28;20058;-86
2021/05/02 05:23:35;;;;;;;0.10;0.10;;;5.40;19.80;;;;;;4987409;28;20065;-86
2021/05/02 05:26:01;;;;;;;0.30;0.30;;;5.50;1.00;;;;;;4993411;28;20038;-86
2021/05/02 05:28:27;;;;;;;0.10;0.10;;;5.40;1.00;;;;;;5001326;28;20033;-85
2021/05/02 05:30:55;;;;;;;0.10;0.10;;;5.40;99.90;;;;;;5009255;28;20033;-85
2021/05/02 05:33:21;;;;;;;;;;;5.40;29.20;;;;;;5000600;28;20487;-85
2021/05/02 05:35:46;;;;;;;0.05;0.05;;;5.60;99.90;;;;;;4999936;28;19945;-85
2021/05/02 05:38:13;;;;;;;0.00;0.00;;;5.40;1.00;;;;;;5007072;28;20038;-85
2021/05/02 05:40:39;;;;;;;0.20;0.20;;;5.50;23.50;;;;;;5010208;28;20723;-85
2021/05/02 05:43:06;;;;;;;0.57;0.57;;;5.70;99.90;;;;;;5024354;28;20469;-85
2021/05/02 05:45:33;;;;;;;0.10;0.10;;;5.70;1.00;;;;;;5009587;28;20060;-86
2021/05/02 05:47:59;;;;;;;;;;;5.70;99.90;;;;;;5010134;28;20273;-86
2021/05/02 05:50:26;;;;;;;0.35;0.35;;;5.60;99.90;;;;;;5026024;28;19909;-86
2021/05/02 05:52:53;;;;;;;0.10;0.10;;;5.60;99.90;;;;;;5006025;28;20050;-85
2021/05/02 05:55:19;;;;;;;0.20;0.20;;;5.70;1.00;;;;;;5003907;28;20034;-87
2021/05/02 05:57:47;;;;;;;0.10;0.10;;;5.60;99.90;;;;;;5004656;28;20391;-86
2021/05/02 06:00:13;;;;;;;0.10;0.10;;;5.70;99.90;;;;;;5009136;28;20030;-87
2021/05/02 06:02:39;;;;;;;0.40;0.40;;;5.60;30.00;;;;;;4996718;28;20018;-86
2021/05/02 06:05:06;;;;;;;0.60;0.30;;;5.70;1.00;;;;;;5010666;28;20079;-86
2021/05/02 06:07:32;;;;;;;0.08;0.08;;;5.90;99.90;;;;;;5009761;28;20558;-87
2021/05/02 06:09:57;;;;;;;0.20;0.20;;;5.80;99.90;;;;;;5010050;28;20046;-85
2021/05/02 06:12:23;;;;;;;0.13;0.13;;;5.80;99.90;;;;;;5010476;28;20022;-86
2021/05/02 06:14:49;;;;;;;0.45;0.45;;;5.90;99.90;;;;;;4996327;28;20030;-86
2021/05/02 06:17:16;;;;;;;0.20;0.20;;;5.80;98.20;;;;;;5025713;28;20038;-86
2021/05/02 06:19:42;;;;;;;0.35;0.35;;;5.90;90.90;;;;;;5006008;28;20038;-86
2021/05/02 06:22:08;;;;;;;0.20;0.20;;;6.10;57.20;;;;;;4999993;28;20498;-86
2021/05/02 06:24:34;;;;;;;0.45;0.45;;;6.10;21.10;;;;;;5007500;28;20037;-86
2021/05/02 06:27:00;;;;;;;0.10;0.10;;;5.70;21.90;;;;;;5021960;28;20050;-86
2021/05/02 06:29:26;;;;;;;0.03;0.03;;;5.80;17.30;;;;;;5004317;28;20030;-85
2021/05/02 06:31:51;;;;;;;0.13;0.13;;;5.90;10.50;;;;;;4990320;28;20030;-84
2021/05/02 06:34:17;;;;;;;0.10;0.10;;;5.70;1.00;;;;;;5012094;28;20035;-85
2021/05/02 06:36:43;;;;;;;0.00;0.00;;;6.60;1.00;;;;;;4999125;28;20026;-85
2021/05/02 06:39:10;;;;;;;0.43;0.43;;;6.80;1.00;;;;;;4998012;28;20033;-85
2021/05/02 06:41:38;;;;;;;0.00;0.00;;;6.60;99.90;;;;;;5004246;28;20034;-86
2021/05/02 06:44:04;;;;;;;0.35;0.35;;;6.50;1.00;;;;;;4999065;28;20451;-87
2021/05/02 06:46:30;;;;;;;0.57;0.40;;;6.90;99.90;;;;;;4995667;28;20391;-86
2021/05/02 06:48:59;;;;;;;0.00;0.00;;;7.00;99.90;;;;;;5004993;28;20387;-87
2021/05/02 06:51:26;;;;;;;0.17;0.17;;;6.90;99.90;;;;;;4996557;28;20573;-87
2021/05/02 06:53:53;;;;;;;0.57;0.57;;;7.00;99.90;;;;;;5001078;28;20093;-88
2021/05/02 06:56:19;;;;;;;0.10;0.10;;;7.40;99.90;;;;;;4999362;28;20113;-87
2021/05/02 06:58:50;;;;;;;0.00;0.00;;;8.20;99.90;;;;;;4998809;28;20034;-87
2021/05/02 07:01:16;;;;;;;0.35;0.35;;;7.90;99.90;;;;;;4999902;28;20398;-87
2021/05/02 07:03:43;;;;;;;13.25;10.93;;;8.20;99.90;;;;;;5001375;28;20034;-87
2021/05/02 07:06:09;;;;;;;1.77;1.67;;;9.00;99.90;;;;;;5003371;28;20103;-87
2021/05/02 07:08:38;;;;;;;0.20;0.20;;;10.40;99.90;;;;;;5000644;28;20034;-86
2021/05/02 07:11:08;;;;;;;0.57;0.55;;;11.90;99.90;;;;;;5002665;28;20067;-86
2021/05/02 07:13:36;;;;;;;0.45;0.20;;;13.90;99.90;;;;;;4999931;28;20022;-87
2021/05/02 07:16:08;;;;;;;0.25;0.25;;;14.10;99.90;;;;;;5002563;28;20037;-85
2021/05/02 07:18:39;;;;;;;0.15;0.15;;;13.90;99.90;;;;;;4997810;28;20029;-85
2021/05/02 07:21:06;;;;;;;0.30;0.10;;;13.70;99.90;;;;;;4999147;28;20021;-85
2021/05/02 07:23:48;;;;;;;0.00;0.00;;;14.60;99.90;;;;;;5002558;28;20115;-84
2021/05/02 07:26:16;;;;;;;0.10;0.10;;;15.80;99.90;;;;;;5002156;28;20526;-88
2021/05/02 07:28:42;;;;;;;0.00;0.00;;;16.20;99.90;;;;;;5018728;28;20036;-86
2021/05/02 07:31:10;;;;;;;;;;;15.60;99.90;;;;;;5003091;28;20049;-86
2021/05/02 07:33:38;;;;;;;0.30;0.30;;;16.00;99.90;;;;;;4999571;28;20378;-85
2021/05/02 07:36:05;;;;;;;0.22;0.22;;;17.30;99.90;;;;;;5006107;28;20018;-85
2021/05/02 07:38:31;;;;;;;0.03;0.03;;;16.90;99.90;;;;;;5001725;28;20026;-86
2021/05/02 07:41:04;;;;;;;0.00;0.00;;;17.80;99.90;;;;;;5006455;28;20017;-84
2021/05/02 07:43:32;;;;;;;0.10;0.10;;;18.20;99.90;;;;;;5000805;28;20131;-86
2021/05/02 07:45:59;;;;;;;0.20;0.20;;;18.70;99.90;;;;;;4998551;28;20030;-87
2021/05/02 07:48:24;;;;;;;0.47;0.15;;;19.20;99.90;;;;;;5002788;28;20687;-85
2021/05/02 07:50:51;;;;;;;0.07;0.07;;;20.80;99.90;;;;;;5002912;28;20104;-85
2021/05/02 07:53:17;;;;;;;;;;;20.50;99.90;;;;;;4998963;28;20027;-85
2021/05/02 07:55:43;;;;;;;0.00;0.00;;;20.20;99.90;;;;;;4999826;28;19960;-85
2021/05/02 07:58:16;;;;;;;0.40;0.40;;;19.60;99.90;;;;;;5003495;28;20460;-85
2021/05/02 08:00:42;;;;;;;0.10;0.10;;;20.30;99.90;;;;;;5020444;28;20048;-85
2021/05/02 08:03:08;;;;;;;0.00;0.00;;;22.00;99.90;;;;;;4997462;28;20460;-86
2021/05/02 08:05:37;;;;;;;0.23;0.23;;;21.60;99.90;;;;;;5001482;28;20033;-86
2021/05/02 08:08:06;;;;;;;0.00;0.00;;;22.40;99.90;;;;;;5014271;28;20859;-86
2021/05/02 08:10:33;;;;;;;0.08;0.05;;;23.10;99.90;;;;;;5002922;28;20497;-87
2021/05/02 08:12:59;;;;;;;0.10;0.10;;;22.80;99.90;;;;;;5005974;28;20033;-87
2021/05/02 08:15:27;;;;;;;0.52;0.52;;;21.40;99.90;;;;;;4990780;28;20026;-85
2021/05/02 08:17:53;;;;;;;0.00;0.00;;;21.70;99.90;;;;;;5001657;28;20680;-87
2021/05/02 08:20:18;;;;;;;0.00;0.00;;;22.00;99.90;;;;;;4994863;28;20026;-87
2021/05/02 08:22:44;;;;;;;0.17;0.17;;;23.30;99.90;;;;;;4990756;28;20026;-87
2021/05/02 08:25:10;;;;;;;0.15;0.15;;;21.00;99.90;;;;;;4995320;28;20050;-87
2021/05/02 08:27:36;;;;;;;1.85;0.30;;;23.30;99.90;;;;;;4997035;28;20402;-87
2021/05/02 08:30:05;;;;;;;0.00;0.00;;;23.20;99.90;;;;;;5000974;28;20030;-86
2021/05/02 08:32:31;;;;;;;0.00;0.00;;;24.50;99.90;;;;;;5012958;28;20038;-86
2021/05/02 08:35:02;;;;;;;0.00;0.00;;;24.90;99.90;;;;;;5002979;28;20517;-86
2021/05/02 08:37:28;;;;;;;0.00;0.00;;;26.00;99.90;;;;;;5002401;28;20054;-87
2021/05/02 08:39:55;;;;;;;0.00;0.00;;;26.90;99.90;;;;;;4994787;28;20021;-88
2021/05/02 08:42:22;;;;;;;0.10;0.10;;;27.60;99.20;;;;;;5006234;28;20033;-86
2021/05/02 08:44:49;;;;;;;0.47;0.47;;;28.00;97.80;;;;;;5007551;28;20037;-88
2021/05/02 08:47:15;;;;;;;0.00;0.00;;;27.30;99.40;;;;;;5005128;28;20070;-89
2021/05/02 08:49:44;;;;;;;0.00;0.00;;;27.20;96.20;;;;;;5004312;28;20022;-90
2021/05/02 08:52:11;;;;;;;0.10;0.10;;;28.70;94.30;;;;;;5007827;28;20024;-88
2021/05/02 08:54:37;;;;;;;0.47;0.13;;;27.50;93.90;;;;;;5002726;28;20034;-88
2021/05/02 08:57:03;;;;;;;0.00;0.00;;;28.50;93.30;;;;;;5002477;28;20034;-86
2021/05/02 08:59:29;;;;;;;0.55;0.25;;;29.30;91.80;;;;;;5003845;28;20022;-87
2021/05/02 09:01:57;;;;;;;0.13;0.13;;;28.70;90.10;;;;;;5006878;28;20034;-86
2021/05/02 09:04:23;;;;;;;0.00;0.00;;;29.90;87.70;;;;;;5003437;28;20044;-88
2021/05/02 09:06:49;;;;;;;0.10;0.08;;;30.30;85.40;;;;;;5001826;28;20026;-89
2021/05/02 09:09:15;;;;;;;0.00;0.00;;;29.60;86.00;;;;;;5006668;28;20030;-87
2021/05/02 09:11:55;;;;;;;0.13;0.13;;;30.00;81.70;;;;;;4993034;28;20084;-87
2021/05/02 09:14:22;;;;;;;0.25;0.20;;;28.70;86.10;;;;;;5000526;28;20148;-84
2021/05/02 09:16:55;;;;;;;0.38;0.38;;;29.30;83.30;;;;;;5018727;28;20037;-85
2021/05/02 09:19:29;;;;;;;0.52;0.52;;;28.90;83.30;;;;;;4997605;28;20403;-84
2021/05/02 09:21:55;;;;;;;0.30;0.30;;;30.70;77.50;;;;;;5000403;28;20188;-85
2021/05/02 09:24:33;;;;;;;0.30;0.30;;;31.60;74.90;;;;;;5001974;28;20492;-86
2021/05/02 09:27:02;;;;;;;0.60;0.60;;;29.80;78.10;;;;;;5013563;28;20281;-85
2021/05/02 09:29:32;;;;;;;0.73;0.63;;;28.70;76.60;;;;;;4998295;28;20112;-85
2021/05/02 09:32:00;;;;;;;0.20;0.20;;;26.20;79.80;;;;;;5000831;28;20033;-87
2021/05/02 09:34:27;;;;;;;0.77;0.73;;;20.60;89.60;;;;;;4999262;28;20057;-86
2021/05/02 09:37:08;;;;;;;0.10;0.10;;;17.90;93.90;;;;;;5019038;28;20445;-85
2021/05/02 09:39:49;;;;;;;0.25;0.25;;;16.70;96.60;;;;;;5004157;28;20153;-86
2021/05/02 09:42:20;;;;;;;0.30;0.30;;;20.50;95.50;;;;;;5001012;28;20126;-86
2021/05/02 09:44:56;;;;;;;0.10;0.10;;;26.40;83.70;;;;;;5006180;28;20080;-86
2021/05/02 09:47:30;;;;;;;0.73;0.73;;;27.90;75.40;;;;;;4999621;28;20049;-86
2021/05/02 09:50:14;;;;;;;0.15;0.15;;;29.10;71.60;;;;;;5006441;28;20577;-87
2021/05/02 09:52:56;;;;;;;0.10;0.10;;;27.90;73.90;;;;;;5021157;28;20505;-87
2021/05/02 09:55:39;;;;;;;0.95;0.95;;;28.10;76.80;;;;;;5002973;28;20026;-86
2021/05/02 09:58:11;;;;;;;0.43;0.40;;;27.60;70.10;;;;;;4999690;28;20042;-86
2021/05/02 10:00:41;;;;;;;0.25;0.22;;;27.20;72.20;;;;;;4995831;28;20026;-85
2021/05/02 10:03:14;;;;;;;0.10;0.10;;;21.20;81.00;;;;;;4993581;28;20046;-85
2021/05/02 10:05:58;;;;;;;0.32;0.32;;;23.00;80.70;;;;;;5002066;28;20045;-86
2021/05/02 10:08:29;;;;;;;0.20;0.20;;;25.30;73.80;;;;;;4995279;28;20049;-87
2021/05/02 10:10:57;;;;;;;0.17;0.17;;;23.40;73.60;;;;;;4998709;28;20100;-87
2021/05/02 10:13:23;;;;;;;0.10;0.10;;;22.50;76.00;;;;;;5001613;28;20550;-87
2021/05/02 10:15:50;;;;;;;0.95;0.45;;;25.50;74.00;;;;;;5014009;28;20050;-85
2021/05/02 10:18:18;;;;;;;0.75;0.40;;;25.50;67.20;;;;;;4998265;28;20037;-88
2021/05/02 10:20:49;;;;;;;0.20;0.20;;;25.60;71.20;;;;;;4998415;28;20153;-88
2021/05/02 10:23:15;;;;;;;0.00;0.00;;;22.70;69.60;;;;;;4994242;28;20022;-87
2021/05/02 10:25:42;;;;;;;;;;;23.20;78.20;;;;;;4998407;28;20605;-87
2021/05/02 10:28:08;;;;;;;0.40;0.40;;;28.10;66.40;;;;;;4996725;28;20378;-88
2021/05/02 10:30:43;;;;;;;0.43;0.43;;;28.50;58.30;;;;;;5002313;28;20034;-88
2021/05/02 10:33:11;;;;;;;0.30;0.30;;;24.90;67.80;;;;;;4998380;28;20030;-86
2021/05/02 10:35:52;;;;;;;0.40;0.40;;;18.60;83.90;;;;;;4996022;28;20022;-86
2021/05/02 10:38:43;;;;;;;0.30;0.30;;;17.50;87.10;;;;;;5001550;28;20034;-86
2021/05/02 10:41:29;;;;;;;0.38;0.38;;;18.00;88.30;;;;;;5003204;28;20505;-87
2021/05/02 10:43:58;;;;;;;0.20;0.20;;;18.80;84.30;;;;;;4997468;28;20117;-85
2021/05/02 10:46:43;;;;;;;0.20;0.20;;;18.50;85.90;;;;;;4995264;28;20037;-85
2021/05/02 10:49:20;;;;;;;0.10;0.10;;;18.10;86.10;;;;;;5000243;28;20034;-85
2021/05/02 10:51:48;;;;;;;0.20;0.20;;;19.30;83.00;;;;;;5000795;28;20477;-84
2021/05/02 10:54:22;;;;;;;0.85;0.20;;;18.20;86.70;;;;;;5004728;28;20061;-85
2021/05/02 10:56:58;;;;;;;0.63;0.45;;;22.20;82.80;;;;;;4996648;28;20030;-85
2021/05/02 10:59:26;;;;;;;0.10;0.10;;;26.10;72.10;;;;;;4996183;28;20972;-86
2021/05/02 11:01:53;;;;;;;0.32;0.22;;;27.90;63.70;;;;;;5004531;28;20034;-85
2021/05/02 11:04:20;;;;;;;0.20;0.13;;;27.50;63.20;;;;;;5018868;28;20033;-86
2021/05/02 11:06:45;;;;;;;0.75;0.75;;;23.90;69.50;;;;;;4996943;28;20030;-86
2021/05/02 11:09:12;;;;;;;0.17;0.17;;;20.30;78.90;;;;;;4999658;28;20417;-84
2021/05/02 11:11:45;;;;;;;0.20;0.20;;;17.90;83.60;;;;;;4999927;28;20570;-84
2021/05/02 11:14:21;;;;;;;0.20;0.20;;;17.50;83.60;;;;;;5002636;28;20485;-84
2021/05/02 11:16:49;;;;;;;0.28;0.20;;;17.60;83.30;;;;;;5003033;28;20087;-84
2021/05/02 11:19:23;;;;;;;0.10;0.10;;;17.40;85.00;;;;;;4999478;28;20037;-85
2021/05/02 11:21:52;;;;;;;0.10;0.10;;;18.10;83.70;;;;;;4999554;28;20029;-85
2021/05/02 11:24:25;;;;;;;0.15;0.15;;;22.40;76.40;;;;;;4995936;28;20040;-83
2021/05/02 11:29:46;;;;;;;0.40;0.40;;;25.40;70.30;;;;;;4996460;28;20601;-83
2021/05/02 11:32:12;;;;;;;0.20;0.20;;;19.60;79.60;;;;;;4994524;28;20037;-84
2021/05/02 11:34:54;;;;;;;0.10;0.10;;;18.80;82.70;;;;;;4997918;28;20042;-86
2021/05/02 11:37:45;;;;;;;0.10;0.10;;;18.80;81.40;;;;;;5006203;28;20018;-87
2021/05/02 11:40:29;;;;;;;0.20;0.20;;;18.10;93.10;;;;;;5016441;28;20030;-86
2021/05/02 11:42:58;;;;;;;0.32;0.32;;;17.70;84.00;;;;;;5014409;28;20036;-86
2021/05/02 11:45:29;;;;;;;0.20;0.20;;;17.90;82.90;;;;;;4998685;28;20650;-86
2021/05/02 11:48:06;;;;;;;0.20;0.20;;;17.90;82.80;;;;;;4998207;28;20053;-88
2021/05/02 11:50:40;;;;;;;0.10;0.10;;;17.90;85.00;;;;;;4991353;28;20521;-87
2021/05/02 11:53:06;;;;;;;0.13;0.13;;;17.50;82.80;;;;;;4997697;28;20054;-86
2021/05/02 11:55:38;;;;;;;0.10;0.10;;;17.50;82.90;;;;;;4989004;28;20034;-87
2021/05/02 11:58:06;;;;;;;0.13;0.13;;;16.80;83.90;;;;;;4998070;28;20109;-88
2021/05/02 12:00:44;;;;;;;0.20;0.20;;;17.20;84.50;;;;;;4998116;28;20506;-85
2021/05/02 12:03:12;;;;;;;0.10;0.10;;;17.50;85.10;;;;;;5000119;28;20033;-87
2021/05/02 12:05:57;;;;;;;2.90;1.10;;;17.10;85.60;;;;;;4997128;28;20174;-84
2021/05/02 12:08:27;;;;;;;0.30;0.30;;;17.50;85.40;;;;;;5003997;28;20040;-85
2021/05/02 12:11:01;;;;;;;0.25;0.25;;;17.60;84.60;;;;;;4993083;28;20030;-85
2021/05/02 12:13:40;;;;;;;0.70;0.35;;;17.70;86.70;;;;;;4997288;28;20025;-84
2021/05/02 12:16:09;;;;;;;0.10;0.10;;;17.80;84.70;;;;;;5001518;28;20049;-85
2021/05/02 12:18:55;;;;;;;0.10;0.10;;;17.20;82.60;;;;;;5001069;28;20021;-85
2021/05/02 12:21:31;;;;;;;0.10;0.10;;;16.90;83.10;;;;;;4996822;28;20027;-86
2021/05/02 12:24:26;;;;;;;2.57;0.73;;;17.10;86.10;;;;;;4996438;28;20030;-86
2021/05/02 12:27:06;;;;;;;0.10;0.10;;;17.40;82.60;;;;;;5004764;28;20049;-85
2021/05/02 12:29:35;;;;;;;0.32;0.25;;;17.00;82.60;;;;;;4997994;28;20057;-84
2021/05/02 12:32:02;;;;;;;0.10;0.10;;;16.40;84.10;;;;;;4998832;28;20148;-84
2021/05/02 12:34:42;;;;;;;0.28;0.28;;;16.10;87.60;;;;;;4998703;28;20076;-84
2021/05/02 12:37:19;;;;;;;0.20;0.20;;;16.10;87.60;;;;;;5003031;28;20026;-85
2021/05/02 12:39:52;;;;;;;0.40;0.40;;;15.90;87.30;;;;;;5004221;28;20034;-85
2021/05/02 12:42:31;;;;;;;0.38;0.38;;;15.70;90.00;;;;;;5005692;28;20098;-85
2021/05/02 12:44:59;;;;;;;0.05;0.05;;;15.80;87.40;;;;;;5005610;28;20144;-88
2021/05/02 12:47:27;;;;;;;0.40;0.25;;;15.80;89.60;;;;;;4995455;28;20080;-86
2021/05/02 12:50:05;;;;;;;0.22;0.22;;;15.60;88.50;;;;;;5000688;28;20080;-85
2021/05/02 12:52:34;;;;;;;1.20;0.90;;;15.60;89.80;;;;;;5000362;28;20025;-85
2021/05/02 12:55:26;;;;;;;0.20;0.20;;;16.40;90.00;;;;;;5008143;28;20474;-86
2021/05/02 12:57:53;;;;;;;0.30;0.30;;;17.10;88.40;;;;;;5005239;28;20025;-86
2021/05/02 13:00:25;;;;;;;0.15;0.15;;;16.80;86.90;;;;;;5021687;28;20030;-85
2021/05/02 13:02:51;;;;;;;0.13;0.13;;;16.90;86.00;;;;;;5001890;28;20110;-85
2021/05/02 13:05:20;;;;;;;1.70;0.50;;;16.90;84.60;;;;;;5002761;28;20113;-85
2021/05/02 13:07:48;;;;;;;0.70;0.43;;;16.20;85.50;;;;;;5003652;28;20048;-86
2021/05/02 13:10:20;;;;;;;0.10;0.10;;;16.00;86.70;;;;;;5005217;28;20022;-86